Time;durP1;ratioP1;P1;durP2;ratioP2;P2;SDS_P1;SDS_P2;PMS_P1;PMS_P2;Temp;Humidity;BMP_temperature;BMP_pressure;BME280_temperature;BME280_humidity;BME280_pressure;Samples;Min_cycle;Max_cycle;Signal;HPM_P1;HPM_P2
2023/11/10 00:01:25;;;;;;;1.15;0.50;;;8.80;99.90;;;;;;4124220;28;20376;-70
2023/11/10 00:03:26;;;;;;;3.60;1.15;;;8.80;99.90;;;;;;4107869;28;20039;-70
2023/11/10 00:05:29;;;;;;;2.22;0.80;;;8.90;99.90;;;;;;4124277;28;20498;-70
2023/11/10 00:07:30;;;;;;;2.90;0.80;;;8.80;99.90;;;;;;4126720;28;20037;-70
2023/11/10 00:09:33;;;;;;;2.33;0.80;;;8.80;99.90;;;;;;4124420;28;20387;-70
2023/11/10 00:11:33;;;;;;;1.58;0.70;;;8.90;99.90;;;;;;4123548;28;20113;-70
2023/11/10 00:13:34;;;;;;;2.00;0.80;;;8.90;99.90;;;;;;4127450;28;20042;-70
2023/11/10 00:15:35;;;;;;;3.80;0.90;;;8.90;99.90;;;;;;4124607;28;20034;-70
2023/11/10 00:17:35;;;;;;;5.25;0.90;;;8.90;99.90;;;;;;4125657;28;20035;-70
2023/11/10 00:19:37;;;;;;;2.33;0.70;;;8.90;99.90;;;;;;4124981;28;20522;-71
2023/11/10 00:21:37;;;;;;;2.28;0.77;;;8.90;99.90;;;;;;4107437;28;20488;-70
2023/11/10 00:23:38;;;;;;;2.25;0.73;;;8.90;99.90;;;;;;4107608;28;20163;-70
2023/11/10 00:25:38;;;;;;;5.75;1.33;;;8.90;99.90;;;;;;4124607;28;20034;-70
2023/11/10 00:27:39;;;;;;;2.95;0.70;;;8.90;99.90;;;;;;4129505;28;20166;-69
2023/11/10 00:29:48;;;;;;;2.05;0.65;;;8.90;99.90;;;;;;4112462;28;20038;-70
2023/11/10 00:31:49;;;;;;;5.05;1.10;;;8.90;99.90;;;;;;4137452;28;20105;-71
2023/11/10 00:33:50;;;;;;;3.78;1.15;;;8.90;99.90;;;;;;4141057;28;20093;-70
2023/11/10 00:35:51;;;;;;;3.42;1.10;;;8.90;99.90;;;;;;4148268;28;20045;-70
2023/11/10 00:37:52;;;;;;;3.50;0.77;;;8.90;99.90;;;;;;4142539;28;20474;-64
2023/11/10 00:39:57;;;;;;;1.83;0.90;;;8.90;99.90;;;;;;4141072;28;20046;-65
2023/11/10 00:41:58;;;;;;;1.90;0.88;;;8.90;99.90;;;;;;4138183;28;20038;-65
2023/11/10 00:43:59;;;;;;;1.85;0.60;;;8.90;99.90;;;;;;4134274;28;20423;-65
2023/11/10 00:45:59;;;;;;;2.95;1.08;;;9.00;99.90;;;;;;4138278;28;20030;-65
2023/11/10 00:48:00;;;;;;;1.58;0.77;;;8.90;99.90;;;;;;4140011;28;20594;-64
2023/11/10 00:50:01;;;;;;;4.18;0.82;;;9.00;99.90;;;;;;4142211;28;20046;-64
2023/11/10 00:52:01;;;;;;;2.20;0.90;;;9.00;99.90;;;;;;4139999;28;20034;-64
2023/11/10 00:54:03;;;;;;;2.03;0.70;;;8.90;99.90;;;;;;4142544;28;20473;-65
2023/11/10 00:56:04;;;;;;;3.40;0.68;;;9.00;99.90;;;;;;4140605;28;20034;-65
2023/11/10 00:58:05;;;;;;;3.03;0.68;;;9.00;99.90;;;;;;4143131;28;20459;-64
2023/11/10 01:00:07;;;;;;;2.42;0.73;;;9.00;99.90;;;;;;4137196;28;20105;-65
2023/11/10 01:02:07;;;;;;;1.55;0.65;;;9.00;99.90;;;;;;4139639;28;22950;-64
2023/11/10 01:04:08;;;;;;;3.33;0.90;;;9.10;99.90;;;;;;4144719;28;20037;-64
2023/11/10 01:06:10;;;;;;;0.93;0.60;;;9.00;99.90;;;;;;4142894;28;20041;-64
2023/11/10 01:08:10;;;;;;;1.85;0.85;;;9.10;99.90;;;;;;4145019;28;20034;-65
2023/11/10 01:10:12;;;;;;;2.58;0.82;;;9.10;99.90;;;;;;4141803;28;20391;-66
2023/11/10 01:12:13;;;;;;;4.00;1.15;;;9.10;99.90;;;;;;4143037;28;20403;-65
2023/11/10 01:14:14;;;;;;;3.15;0.90;;;9.10;99.90;;;;;;4144823;28;20038;-65
2023/11/10 01:16:15;;;;;;;2.38;0.80;;;9.00;99.90;;;;;;4143501;28;20380;-65
2023/11/10 01:18:16;;;;;;;4.38;1.13;;;9.10;99.90;;;;;;4143736;28;20601;-65
2023/11/10 01:20:16;;;;;;;5.25;1.10;;;9.10;99.90;;;;;;4142593;28;20038;-65
2023/11/10 01:22:17;;;;;;;2.45;0.90;;;9.10;99.90;;;;;;4143926;28;20612;-65
2023/11/10 01:24:18;;;;;;;2.63;0.90;;;9.10;99.90;;;;;;4144541;28;20371;-65
2023/11/10 01:26:18;;;;;;;2.65;1.00;;;9.10;99.90;;;;;;4142153;28;20050;-66
2023/11/10 01:28:20;;;;;;;3.22;1.00;;;9.10;99.90;;;;;;4143550;28;20080;-65
2023/11/10 01:30:21;;;;;;;1.40;1.00;;;9.10;99.90;;;;;;4131632;28;20097;-65
2023/11/10 01:32:22;;;;;;;2.20;1.23;;;9.10;99.90;;;;;;4126502;28;20066;-65
2023/11/10 01:34:22;;;;;;;2.63;0.90;;;9.10;99.90;;;;;;4128054;28;20038;-65
2023/11/10 01:36:23;;;;;;;2.17;0.50;;;9.10;99.90;;;;;;4126935;28;20093;-65
2023/11/10 01:38:24;;;;;;;4.10;1.25;;;9.20;99.90;;;;;;4127242;28;20034;-65
2023/11/10 01:40:24;;;;;;;5.18;1.15;;;9.20;99.90;;;;;;4128592;28;20077;-66
2023/11/10 01:42:25;;;;;;;1.88;0.85;;;9.20;99.90;;;;;;4124941;28;20034;-66
2023/11/10 01:44:25;;;;;;;2.90;0.90;;;9.20;99.90;;;;;;4126433;28;20502;-66
2023/11/10 01:46:46;;;;;;;3.35;1.10;;;9.20;99.90;;;;;;4122187;28;20061;-66
2023/11/10 01:48:47;;;;;;;2.45;1.00;;;9.20;99.90;;;;;;4121858;28;20042;-68
2023/11/10 01:50:47;;;;;;;5.10;1.02;;;9.20;99.90;;;;;;4125753;28;20041;-68
2023/11/10 01:52:48;;;;;;;3.65;1.05;;;9.20;99.90;;;;;;4125696;28;20545;-68
2023/11/10 01:54:49;;;;;;;3.58;1.20;;;9.20;99.90;;;;;;4128134;28;20037;-68
2023/11/10 01:56:51;;;;;;;2.80;0.77;;;9.20;99.90;;;;;;4125968;28;20038;-69
2023/11/10 01:58:53;;;;;;;3.80;1.20;;;9.20;99.90;;;;;;4125683;28;20395;-68
2023/11/10 02:00:53;;;;;;;4.38;1.00;;;9.20;99.90;;;;;;4126068;28;20128;-68
2023/11/10 02:02:54;;;;;;;4.30;0.98;;;9.20;99.90;;;;;;4109461;28;20039;-68
2023/11/10 02:04:55;;;;;;;3.95;1.10;;;9.20;99.90;;;;;;4127056;28;20066;-68
2023/11/10 02:06:57;;;;;;;2.83;1.00;;;9.20;99.90;;;;;;4124676;28;20046;-68
2023/11/10 02:08:59;;;;;;;2.08;0.85;;;9.20;99.90;;;;;;4108684;28;20518;-68
2023/11/10 02:11:00;;;;;;;4.13;1.27;;;9.20;99.90;;;;;;4128605;28;20096;-68
2023/11/10 02:13:01;;;;;;;4.80;1.38;;;9.20;99.90;;;;;;4127467;28;20117;-68
2023/11/10 02:15:03;;;;;;;5.22;1.23;;;9.10;99.90;;;;;;4127382;28;20041;-68
2023/11/10 02:17:04;;;;;;;2.80;1.17;;;9.20;99.90;;;;;;4125391;28;20039;-68
2023/11/10 02:19:05;;;;;;;4.03;1.00;;;9.20;99.90;;;;;;4125926;28;20073;-68
2023/11/10 02:21:06;;;;;;;2.07;0.80;;;9.20;99.90;;;;;;4107185;28;20697;-68
2023/11/10 02:23:08;;;;;;;4.18;1.17;;;9.20;99.90;;;;;;4126149;28;20057;-68
2023/11/10 02:25:28;;;;;;;2.42;0.90;;;9.20;99.90;;;;;;4130460;28;20546;-68
2023/11/10 02:27:29;;;;;;;4.25;1.13;;;9.20;99.90;;;;;;4109896;28;20047;-68
2023/11/10 02:29:30;;;;;;;3.28;1.30;;;9.20;99.90;;;;;;4126769;28;20041;-68
2023/11/10 02:31:31;;;;;;;3.67;1.02;;;9.20;99.90;;;;;;4141334;28;20034;-68
2023/11/10 02:33:33;;;;;;;3.72;1.25;;;9.20;99.90;;;;;;4142457;28;20122;-68
2023/11/10 02:35:34;;;;;;;2.50;0.90;;;9.20;99.90;;;;;;4120036;28;20487;-68
2023/11/10 02:37:35;;;;;;;4.38;1.08;;;9.20;99.90;;;;;;4142396;28;20041;-68
2023/11/10 02:39:36;;;;;;;4.68;1.23;;;9.30;99.90;;;;;;4140790;28;20049;-68
2023/11/10 02:41:37;;;;;;;2.65;0.88;;;9.30;99.90;;;;;;4140358;28;20538;-68
2023/11/10 02:43:37;;;;;;;2.20;0.80;;;9.30;99.90;;;;;;4148490;28;20033;-68
2023/11/10 02:45:38;;;;;;;6.43;1.40;;;9.30;99.90;;;;;;4124026;28;20037;-68
2023/11/10 02:47:39;;;;;;;2.78;1.15;;;9.30;99.90;;;;;;4142744;28;20041;-68
2023/11/10 02:49:39;;;;;;;4.90;1.20;;;9.30;99.90;;;;;;4147546;28;20033;-68
2023/11/10 02:51:40;;;;;;;2.35;0.90;;;9.30;99.90;;;;;;4140033;28;20113;-68
2023/11/10 02:53:41;;;;;;;4.03;1.20;;;9.40;99.90;;;;;;4142913;28;20041;-68
2023/11/10 02:55:42;;;;;;;3.22;1.20;;;9.30;99.90;;;;;;4141090;28;20032;-69
2023/11/10 02:57:42;;;;;;;7.10;1.83;;;9.40;99.90;;;;;;4142605;28;20484;-68
2023/11/10 02:59:43;;;;;;;4.20;1.40;;;9.40;99.90;;;;;;4123524;28;20097;-68
2023/11/10 03:01:44;;;;;;;4.55;1.33;;;9.30;99.90;;;;;;4139638;28;20053;-68
2023/11/10 03:03:44;;;;;;;4.95;1.25;;;9.40;99.90;;;;;;4141782;28;20033;-69
2023/11/10 03:05:45;;;;;;;4.28;1.00;;;9.40;99.90;;;;;;4140023;28;20038;-68
2023/11/10 03:07:46;;;;;;;7.13;1.33;;;9.40;99.90;;;;;;4141640;28;20042;-68
2023/11/10 03:09:46;;;;;;;4.75;1.45;;;9.30;99.90;;;;;;4140581;28;20379;-68
2023/11/10 03:11:47;;;;;;;5.65;1.30;;;9.40;99.90;;;;;;4142175;28;20037;-68
2023/11/10 03:13:48;;;;;;;3.90;1.20;;;9.40;99.90;;;;;;4145914;28;20046;-68
2023/11/10 03:15:49;;;;;;;4.55;1.27;;;9.30;99.90;;;;;;4140748;28;20034;-68
2023/11/10 03:17:49;;;;;;;3.25;1.23;;;9.40;99.90;;;;;;4142284;28;20471;-69
2023/11/10 03:19:50;;;;;;;4.60;1.58;;;9.40;99.90;;;;;;4142567;28;20113;-68
2023/11/10 03:21:50;;;;;;;6.72;1.55;;;9.40;99.90;;;;;;4141833;28;20037;-69
2023/11/10 03:23:51;;;;;;;3.05;1.20;;;9.40;99.90;;;;;;4141417;28;20095;-68
2023/11/10 03:25:52;;;;;;;7.70;1.42;;;9.40;99.90;;;;;;4141156;28;20040;-68
2023/11/10 03:27:53;;;;;;;5.85;1.40;;;9.30;99.90;;;;;;4136113;28;20052;-69
2023/11/10 03:29:53;;;;;;;3.05;0.85;;;9.30;99.90;;;;;;4127519;28;20140;-68
2023/11/10 03:31:54;;;;;;;4.47;1.17;;;9.30;99.90;;;;;;4140501;28;20444;-68
2023/11/10 03:33:54;;;;;;;2.90;1.08;;;9.30;99.90;;;;;;4143527;28;20042;-69
2023/11/10 03:35:55;;;;;;;6.15;1.05;;;9.30;99.90;;;;;;4141449;28;20068;-69
2023/11/10 03:37:56;;;;;;;5.25;1.05;;;9.30;99.90;;;;;;4144330;28;20044;-69
2023/11/10 03:39:56;;;;;;;3.17;1.48;;;9.30;99.90;;;;;;4144463;28;20391;-69
2023/11/10 03:42:00;;;;;;;1.77;0.90;;;9.30;99.90;;;;;;4141567;28;20058;-69
2023/11/10 03:44:00;;;;;;;5.60;1.30;;;9.30;99.90;;;;;;4141000;28;20038;-69
2023/11/10 03:46:01;;;;;;;3.53;1.13;;;9.40;99.90;;;;;;4147748;28;20555;-69
2023/11/10 03:48:02;;;;;;;3.03;1.10;;;9.30;99.90;;;;;;4142642;28;20033;-69
2023/11/10 03:50:02;;;;;;;4.30;1.10;;;9.30;99.90;;;;;;4143094;28;20533;-70
2023/11/10 03:52:03;;;;;;;5.85;1.67;;;9.30;99.90;;;;;;4141517;28;20041;-69
2023/11/10 03:54:04;;;;;;;2.97;1.05;;;9.30;99.90;;;;;;4141772;28;20042;-69
2023/11/10 03:56:05;;;;;;;7.13;1.60;;;9.20;99.90;;;;;;4141359;28;21097;-69
2023/11/10 03:58:07;;;;;;;5.00;1.30;;;9.30;99.90;;;;;;4146096;28;20033;-69
2023/11/10 04:00:09;;;;;;;3.92;1.00;;;9.30;99.90;;;;;;4140913;28;20137;-69
2023/11/10 04:02:09;;;;;;;3.90;1.08;;;9.30;99.90;;;;;;4143668;28;20034;-68
2023/11/10 04:04:10;;;;;;;4.35;1.20;;;9.20;99.90;;;;;;4143807;28;20088;-69
2023/11/10 04:06:11;;;;;;;4.38;1.42;;;9.20;99.90;;;;;;4142143;28;20034;-69
2023/11/10 04:08:12;;;;;;;3.25;1.33;;;9.20;99.90;;;;;;4143980;28;20517;-82
2023/11/10 04:10:12;;;;;;;5.05;1.58;;;9.20;99.90;;;;;;4151189;28;20046;-81
2023/11/10 04:12:13;;;;;;;3.08;0.88;;;9.20;99.90;;;;;;4152678;28;20030;-81
2023/11/10 04:14:14;;;;;;;4.70;1.00;;;9.30;99.90;;;;;;4141708;28;20120;-82
2023/11/10 04:16:22;;;;;;;4.10;1.40;;;9.20;99.90;;;;;;4140054;28;20030;-82
2023/11/10 04:18:26;;;;;;;6.07;1.40;;;9.20;99.90;;;;;;4141560;28;20092;-81
2023/11/10 04:20:27;;;;;;;7.65;1.15;;;9.20;99.90;;;;;;4144975;28;20498;-81
2023/11/10 04:22:27;;;;;;;2.33;0.90;;;9.20;99.90;;;;;;4134768;28;20034;-82
2023/11/10 04:24:28;;;;;;;5.07;0.95;;;9.10;99.90;;;;;;4136355;28;20026;-82
2023/11/10 04:26:29;;;;;;;1.98;0.93;;;9.20;99.90;;;;;;4143456;28;20124;-81
2023/11/10 04:28:29;;;;;;;4.03;1.08;;;9.20;99.90;;;;;;4142690;28;20441;-81
2023/11/10 04:30:30;;;;;;;4.25;1.25;;;9.20;99.90;;;;;;4146083;28;21081;-81
2023/11/10 04:32:30;;;;;;;3.30;1.08;;;9.20;99.90;;;;;;4142090;28;20066;-81
2023/11/10 04:34:31;;;;;;;3.70;1.23;;;9.20;99.90;;;;;;4142196;28;20522;-82
2023/11/10 04:36:32;;;;;;;4.68;1.30;;;9.10;99.90;;;;;;4136803;28;20037;-81
2023/11/10 04:38:33;;;;;;;4.20;1.15;;;9.20;99.90;;;;;;4144977;28;20546;-81
2023/11/10 04:40:33;;;;;;;2.72;0.80;;;9.20;99.90;;;;;;4142311;28;20490;-81
2023/11/10 04:42:34;;;;;;;2.13;1.10;;;9.20;99.90;;;;;;4145460;28;20030;-81
2023/11/10 04:44:35;;;;;;;2.72;0.98;;;9.20;99.90;;;;;;4138237;28;20069;-82
2023/11/10 04:46:41;;;;;;;5.60;1.70;;;9.20;99.90;;;;;;4142223;28;20072;-81
2023/11/10 04:48:42;;;;;;;4.82;1.58;;;9.20;99.90;;;;;;4144837;28;20038;-81
2023/11/10 04:50:42;;;;;;;5.07;1.88;;;9.20;99.90;;;;;;4145351;28;20482;-80
2023/11/10 04:52:43;;;;;;;2.33;1.00;;;9.20;99.90;;;;;;4145067;28;20026;-80
2023/11/10 04:54:45;;;;;;;2.95;1.10;;;9.20;99.90;;;;;;4145681;28;20049;-83
2023/11/10 04:56:46;;;;;;;7.05;1.08;;;9.20;99.90;;;;;;4144740;28;20034;-81
2023/11/10 04:58:47;;;;;;;4.05;1.30;;;9.20;99.90;;;;;;4145005;28;20038;-80
2023/11/10 05:00:47;;;;;;;3.33;0.80;;;9.20;99.90;;;;;;4137987;28;20034;-81
2023/11/10 05:02:48;;;;;;;1.55;0.75;;;9.20;99.90;;;;;;4141839;28;20042;-81
2023/11/10 05:04:48;;;;;;;9.38;1.50;;;9.20;99.90;;;;;;4145556;28;20122;-80
2023/11/10 05:06:49;;;;;;;4.35;1.20;;;9.20;99.90;;;;;;4144896;28;20426;-81
2023/11/10 05:08:50;;;;;;;3.40;1.00;;;9.20;99.90;;;;;;4140043;28;20495;-81
2023/11/10 05:10:50;;;;;;;5.65;1.45;;;9.10;99.90;;;;;;4140859;28;20034;-81
2023/11/10 05:12:51;;;;;;;2.90;1.13;;;9.20;99.90;;;;;;4140581;28;20045;-81
2023/11/10 05:14:52;;;;;;;4.18;0.90;;;9.20;99.90;;;;;;4143566;28;20066;-80
2023/11/10 05:16:55;;;;;;;2.35;1.00;;;9.20;99.90;;;;;;4142527;28;20046;-66
2023/11/10 05:18:58;;;;;;;4.15;1.38;;;9.20;99.90;;;;;;4143255;28;20046;-68
2023/11/10 05:20:58;;;;;;;;;;;9.20;99.90;;;;;;4143547;28;20053;-68
2023/11/10 05:22:59;;;;;;;2.15;1.00;;;9.20;99.90;;;;;;4144766;28;20838;-68
2023/11/10 05:25:02;;;;;;;2.88;1.17;;;9.20;99.90;;;;;;4144363;28;20396;-68
2023/11/10 05:27:02;;;;;;;3.33;1.35;;;9.20;99.90;;;;;;4142467;28;20037;-65
2023/11/10 05:29:03;;;;;;;1.50;0.82;;;9.20;99.90;;;;;;4141765;28;20414;-65
2023/11/10 05:31:04;;;;;;;2.42;1.00;;;9.10;99.90;;;;;;4125862;28;20126;-65
2023/11/10 05:33:04;;;;;;;2.20;0.90;;;9.10;99.90;;;;;;4128151;28;20027;-65
2023/11/10 05:35:08;;;;;;;4.28;1.00;;;9.10;99.90;;;;;;4127521;28;20034;-65
2023/11/10 05:37:10;;;;;;;3.30;1.00;;;9.10;99.90;;;;;;4126638;28;20042;-65
2023/11/10 05:39:11;;;;;;;4.47;1.05;;;9.10;99.90;;;;;;4122901;28;20081;-65
2023/11/10 05:41:11;;;;;;;3.33;0.93;;;9.10;99.90;;;;;;4125806;28;20089;-65
2023/11/10 05:43:12;;;;;;;2.95;1.25;;;9.10;99.90;;;;;;4127418;28;20398;-65
2023/11/10 05:45:12;;;;;;;3.72;1.13;;;9.10;99.90;;;;;;4101999;28;20035;-65
2023/11/10 05:47:13;;;;;;;4.65;1.20;;;9.10;99.90;;;;;;4125831;28;20450;-67
2023/11/10 05:49:13;;;;;;;3.25;0.93;;;9.10;99.90;;;;;;4124162;28;20046;-65
2023/11/10 05:51:14;;;;;;;5.72;1.00;;;9.10;99.90;;;;;;4125494;28;20034;-65
2023/11/10 05:53:15;;;;;;;1.88;0.90;;;9.10;99.90;;;;;;4123860;28;20030;-65
2023/11/10 05:55:16;;;;;;;6.13;1.20;;;9.10;99.90;;;;;;4127151;28;20041;-65
2023/11/10 05:57:17;;;;;;;2.42;1.00;;;9.10;99.90;;;;;;4129027;28;20461;-65
2023/11/10 05:59:18;;;;;;;3.00;0.80;;;9.10;99.90;;;;;;4126499;28;20038;-65
2023/11/10 06:01:23;;;;;;;1.20;0.70;;;9.10;99.90;;;;;;4125622;28;20479;-65
2023/11/10 06:03:26;;;;;;;4.38;1.17;;;9.10;99.90;;;;;;4127172;28;20049;-65
2023/11/10 06:05:29;;;;;;;3.95;0.90;;;9.10;99.90;;;;;;4126625;28;20522;-65
2023/11/10 06:07:31;;;;;;;3.03;1.17;;;9.10;99.90;;;;;;4127127;28;20089;-65
2023/11/10 06:09:31;;;;;;;3.20;1.38;;;9.10;99.90;;;;;;4109778;28;20126;-65
2023/11/10 06:11:32;;;;;;;3.92;1.70;;;9.10;99.90;;;;;;4125331;28;20085;-65
2023/11/10 06:13:33;;;;;;;5.65;1.60;;;9.10;99.90;;;;;;4126869;28;20277;-65
2023/11/10 06:15:34;;;;;;;4.57;1.88;;;9.10;99.90;;;;;;4124313;28;20050;-65
2023/11/10 06:17:35;;;;;;;3.35;1.13;;;9.10;99.90;;;;;;4119557;28;20054;-65
2023/11/10 06:19:35;;;;;;;5.25;1.20;;;9.10;99.90;;;;;;4124191;28;20053;-65
2023/11/10 06:21:36;;;;;;;3.60;1.35;;;9.10;99.90;;;;;;4125826;28;20475;-65
2023/11/10 06:23:37;;;;;;;2.45;0.98;;;9.10;99.90;;;;;;4124820;28;20431;-65
2023/11/10 06:25:38;;;;;;;2.83;0.95;;;9.10;99.90;;;;;;4127822;28;20475;-65
2023/11/10 06:27:39;;;;;;;3.00;0.98;;;9.10;99.90;;;;;;4126544;28;20044;-65
2023/11/10 06:29:39;;;;;;;4.30;1.00;;;9.10;99.90;;;;;;4125423;28;21031;-68
2023/11/10 06:31:40;;;;;;;4.18;1.20;;;9.10;99.90;;;;;;4125895;28;20053;-68
2023/11/10 06:33:41;;;;;;;1.30;0.80;;;9.10;99.90;;;;;;4124938;28;20031;-67
2023/11/10 06:35:42;;;;;;;6.95;1.20;;;9.10;99.90;;;;;;4124346;28;20027;-67
2023/11/10 06:37:42;;;;;;;3.53;1.30;;;9.10;99.90;;;;;;4133222;28;20470;-69
2023/11/10 06:39:43;;;;;;;2.88;0.75;;;9.00;99.90;;;;;;4130479;28;20049;-69
2023/11/10 06:41:44;;;;;;;4.35;1.08;;;9.00;99.90;;;;;;4131620;28;20084;-69
2023/11/10 06:43:45;;;;;;;2.58;1.13;;;9.00;99.90;;;;;;4134271;28;20030;-70
2023/11/10 06:45:46;;;;;;;3.08;1.10;;;9.00;99.90;;;;;;4115121;28;20046;-70
2023/11/10 06:47:46;;;;;;;3.47;1.20;;;8.90;99.90;;;;;;4134880;28;20085;-70
2023/11/10 06:49:47;;;;;;;8.30;1.55;;;9.00;99.90;;;;;;4128041;28;20042;-70
2023/11/10 06:51:47;;;;;;;2.55;1.25;;;8.90;99.90;;;;;;4130162;28;20483;-70
2023/11/10 06:53:48;;;;;;;3.58;1.25;;;8.90;99.90;;;;;;4123486;28;20092;-69
2023/11/10 06:55:51;;;;;;;4.78;1.10;;;8.90;99.90;;;;;;4134134;28;20045;-69
2023/11/10 06:57:52;;;;;;;3.35;1.20;;;8.90;99.90;;;;;;4122719;28;20053;-71
2023/11/10 06:59:52;;;;;;;3.60;0.93;;;8.90;99.90;;;;;;4132191;28;20070;-70
2023/11/10 07:01:53;;;;;;;2.60;0.85;;;8.90;99.90;;;;;;4131237;28;20368;-69
2023/11/10 07:03:54;;;;;;;3.20;1.00;;;8.90;99.90;;;;;;4132655;28;20117;-69
2023/11/10 07:05:55;;;;;;;5.88;1.30;;;8.90;99.90;;;;;;4129483;28;20070;-69
2023/11/10 07:07:59;;;;;;;5.22;1.10;;;8.90;99.90;;;;;;4132688;28;20064;-69
2023/11/10 07:09:59;;;;;;;3.60;1.13;;;8.90;99.90;;;;;;4130025;28;20096;-70
2023/11/10 07:12:01;;;;;;;3.25;1.05;;;9.00;99.90;;;;;;4115507;28;20049;-71
2023/11/10 07:14:02;;;;;;;3.37;1.20;;;9.00;99.90;;;;;;4126369;28;20113;-72
2023/11/10 07:16:03;;;;;;;3.63;0.82;;;9.00;99.90;;;;;;4121102;28;20506;-69
2023/11/10 07:18:05;;;;;;;1.85;0.95;;;8.90;99.90;;;;;;4122110;28;20032;-70
2023/11/10 07:20:07;;;;;;;5.35;1.17;;;8.90;99.90;;;;;;4122790;28;20068;-69
2023/11/10 07:22:07;;;;;;;4.82;1.05;;;8.90;99.90;;;;;;4122891;28;20114;-69
2023/11/10 07:24:09;;;;;;;3.17;1.23;;;8.90;99.90;;;;;;4119395;28;20041;-69
2023/11/10 07:26:10;;;;;;;2.63;0.95;;;9.00;99.90;;;;;;4116307;28;20043;-71
2023/11/10 07:28:10;;;;;;;2.03;1.00;;;8.90;99.90;;;;;;4121028;28;20491;-70
2023/11/10 07:30:11;;;;;;;2.42;0.90;;;9.00;99.90;;;;;;4122687;28;20048;-70
2023/11/10 07:32:12;;;;;;;1.98;0.90;;;8.90;99.90;;;;;;4137800;28;20041;-71
2023/11/10 07:34:12;;;;;;;2.35;0.90;;;8.90;99.90;;;;;;4138134;28;20411;-70
2023/11/10 07:36:14;;;;;;;2.75;1.02;;;9.00;99.90;;;;;;4139634;28;20045;-70
2023/11/10 07:38:14;;;;;;;1.85;0.68;;;9.00;99.90;;;;;;4130517;28;20034;-70
2023/11/10 07:40:17;;;;;;;3.85;0.70;;;9.00;99.90;;;;;;4136538;28;20056;-71
2023/11/10 07:42:18;;;;;;;1.33;0.60;;;9.00;99.90;;;;;;4136780;28;20207;-71
2023/11/10 07:44:18;;;;;;;1.67;0.65;;;9.10;99.90;;;;;;4138855;28;20081;-71
2023/11/10 07:46:19;;;;;;;6.70;1.13;;;9.20;99.90;;;;;;4136922;28;20042;-71
2023/11/10 07:48:20;;;;;;;2.35;0.85;;;9.30;99.90;;;;;;4135765;28;20073;-68
2023/11/10 07:50:21;;;;;;;1.08;0.60;;;9.40;99.90;;;;;;4150567;28;20128;-69
2023/11/10 07:52:24;;;;;;;1.40;0.80;;;9.40;99.90;;;;;;4135858;28;20049;-68
2023/11/10 07:54:24;;;;;;;1.92;0.70;;;9.70;99.90;;;;;;4137138;28;20041;-69
2023/11/10 07:56:25;;;;;;;2.05;0.70;;;10.00;99.90;;;;;;4134297;28;20093;-68
2023/11/10 07:58:26;;;;;;;2.67;0.75;;;10.20;99.90;;;;;;4137400;28;20113;-68
2023/11/10 08:00:27;;;;;;;3.88;1.23;;;10.40;99.90;;;;;;4131658;28;20078;-68
2023/11/10 08:02:28;;;;;;;1.50;0.77;;;10.60;99.90;;;;;;4150555;28;20057;-69
2023/11/10 08:04:29;;;;;;;3.00;0.80;;;10.70;99.90;;;;;;4133658;28;20643;-68
2023/11/10 08:06:30;;;;;;;2.53;0.60;;;10.90;99.90;;;;;;4132089;28;20038;-68
2023/11/10 08:08:30;;;;;;;3.80;1.25;;;11.10;99.90;;;;;;4136869;28;20030;-68
2023/11/10 08:10:31;;;;;;;1.77;0.70;;;11.30;99.90;;;;;;4135171;28;20530;-68
2023/11/10 08:12:32;;;;;;;2.70;1.08;;;11.60;99.90;;;;;;4140174;28;20034;-68
2023/11/10 08:14:33;;;;;;;1.38;0.80;;;11.80;99.90;;;;;;4155837;28;20040;-68
2023/11/10 08:16:33;;;;;;;4.40;1.17;;;11.80;99.90;;;;;;4138259;28;20676;-68
2023/11/10 08:18:34;;;;;;;2.33;1.00;;;11.80;99.90;;;;;;4139901;28;20046;-69
2023/11/10 08:20:35;;;;;;;5.78;0.80;;;11.80;99.90;;;;;;4139926;28;20045;-68
2023/11/10 08:22:35;;;;;;;2.78;0.80;;;11.70;99.90;;;;;;4140351;28;20474;-68
2023/11/10 08:24:36;;;;;;;2.42;0.82;;;11.70;99.90;;;;;;4141589;28;20080;-68
2023/11/10 08:26:38;;;;;;;4.63;1.17;;;11.60;99.90;;;;;;4138459;28;20034;-68
2023/11/10 08:28:39;;;;;;;2.65;0.80;;;11.50;99.90;;;;;;4141202;28;20504;-68
2023/11/10 08:30:40;;;;;;;4.07;1.20;;;11.60;99.90;;;;;;4133659;28;20082;-68
2023/11/10 08:32:40;;;;;;;4.05;1.00;;;11.50;99.90;;;;;;4134610;28;20229;-68
2023/11/10 08:34:42;;;;;;;2.10;0.60;;;11.30;99.90;;;;;;4130693;28;20050;-68
2023/11/10 08:36:43;;;;;;;4.93;1.10;;;11.30;99.90;;;;;;4133841;28;21004;-68
2023/11/10 08:38:44;;;;;;;6.45;1.33;;;11.10;99.90;;;;;;4129074;28;20066;-68
2023/11/10 08:40:45;;;;;;;6.07;1.27;;;11.20;99.90;;;;;;4128427;28;20061;-68
2023/11/10 08:42:45;;;;;;;2.80;1.00;;;11.10;99.90;;;;;;4132100;28;20133;-68
2023/11/10 08:44:47;;;;;;;4.07;1.38;;;10.90;99.90;;;;;;4130777;28;20035;-68
2023/11/10 08:46:50;;;;;;;7.40;1.40;;;10.90;99.90;;;;;;4110907;28;20046;-68
2023/11/10 08:48:50;;;;;;;5.47;1.27;;;10.90;99.90;;;;;;4131907;28;20085;-68
2023/11/10 08:50:52;;;;;;;4.35;1.15;;;10.90;99.90;;;;;;4127305;28;20129;-67
2023/11/10 08:52:53;;;;;;;4.93;1.10;;;10.90;99.90;;;;;;4128629;28;20038;-68
2023/11/10 08:54:55;;;;;;;3.65;1.00;;;11.00;99.90;;;;;;4115118;28;20038;-68
2023/11/10 08:56:55;;;;;;;3.63;1.10;;;11.10;99.90;;;;;;4127428;28;20081;-70
2023/11/10 08:58:57;;;;;;;3.40;1.15;;;11.10;99.90;;;;;;4128692;28;20038;-70
2023/11/10 09:00:58;;;;;;;4.85;1.70;;;11.20;99.90;;;;;;4126814;28;20035;-70
2023/11/10 09:02:58;;;;;;;5.35;1.60;;;11.30;99.90;;;;;;4129866;28;20045;-70
2023/11/10 09:04:59;;;;;;;3.38;0.90;;;11.30;99.90;;;;;;4129631;28;20073;-69
2023/11/10 09:07:00;;;;;;;4.75;1.30;;;11.20;99.90;;;;;;4109946;28;20054;-72
2023/11/10 09:09:01;;;;;;;5.75;1.60;;;11.20;99.90;;;;;;4126083;28;20564;-71
2023/11/10 09:11:02;;;;;;;4.47;1.17;;;11.20;99.90;;;;;;4128155;28;20034;-71
2023/11/10 09:13:03;;;;;;;4.13;0.93;;;11.20;99.90;;;;;;4128680;28;20049;-71
2023/11/10 09:15:04;;;;;;;5.15;1.25;;;11.10;99.90;;;;;;4128942;28;20038;-71
2023/11/10 09:17:04;;;;;;;4.57;1.40;;;11.10;99.90;;;;;;4127450;28;20030;-70
2023/11/10 09:19:05;;;;;;;8.23;1.55;;;11.00;99.90;;;;;;4126965;28;20065;-71
2023/11/10 09:21:09;;;;;;;5.95;1.70;;;11.00;99.90;;;;;;4126306;28;20053;-71
2023/11/10 09:23:09;;;;;;;6.00;1.75;;;10.90;99.90;;;;;;4129026;28;20047;-71
2023/11/10 09:25:15;;;;;;;5.63;1.88;;;10.90;99.90;;;;;;4126425;28;21467;-71
2023/11/10 09:27:16;;;;;;;4.97;1.45;;;10.90;99.90;;;;;;4127478;28;20041;-70
2023/11/10 09:29:17;;;;;;;6.53;1.50;;;10.90;99.90;;;;;;4126716;28;20042;-70
2023/11/10 09:31:17;;;;;;;5.43;1.17;;;10.70;99.90;;;;;;4138180;28;20050;-71
2023/11/10 09:33:18;;;;;;;6.85;1.60;;;10.80;99.90;;;;;;4139791;28;20034;-71
2023/11/10 09:35:19;;;;;;;4.68;1.15;;;10.70;99.90;;;;;;4140549;28;20062;-70
2023/11/10 09:37:19;;;;;;;4.97;1.45;;;10.70;99.90;;;;;;4143424;28;20181;-71
2023/11/10 09:39:20;;;;;;;4.03;1.40;;;10.70;99.90;;;;;;4139527;28;20662;-70
2023/11/10 09:41:25;;;;;;;5.97;1.70;;;10.70;99.90;;;;;;4138280;28;20057;-70
2023/11/10 09:43:27;;;;;;;4.55;1.73;;;10.70;99.90;;;;;;4141311;28;20041;-71
2023/11/10 09:45:28;;;;;;;6.43;1.60;;;10.60;99.90;;;;;;4141448;28;20038;-70
2023/11/10 09:47:28;;;;;;;8.07;1.65;;;10.60;99.90;;;;;;4155702;28;20041;-71
2023/11/10 09:49:30;;;;;;;4.65;1.25;;;10.60;99.90;;;;;;4139761;28;20391;-71
2023/11/10 09:51:33;;;;;;;4.45;1.67;;;10.60;99.90;;;;;;4140983;28;20034;-70
2023/11/10 09:53:34;;;;;;;;;;;10.60;99.90;;;;;;4142390;28;20037;-71
2023/11/10 09:55:35;;;;;;;3.92;1.42;;;10.60;99.90;;;;;;4140648;28;19956;-71
2023/11/10 09:57:37;;;;;;;6.55;1.45;;;10.50;99.90;;;;;;4140905;28;20506;-71
2023/11/10 09:59:41;;;;;;;8.35;1.98;;;10.50;99.90;;;;;;4138934;28;20050;-70
2023/11/10 10:01:43;;;;;;;7.47;1.85;;;10.50;99.90;;;;;;4139300;28;20480;-71
2023/11/10 10:03:44;;;;;;;7.07;2.17;;;10.50;99.90;;;;;;4142193;28;20034;-71
2023/11/10 10:05:45;;;;;;;7.15;1.75;;;10.50;99.90;;;;;;4138226;28;20125;-70
2023/11/10 10:07:46;;;;;;;6.35;2.03;;;10.50;99.90;;;;;;4138167;28;20431;-71
2023/11/10 10:09:47;;;;;;;9.25;2.08;;;10.50;99.90;;;;;;4139831;28;20052;-70
2023/11/10 10:11:48;;;;;;;5.00;1.50;;;10.50;99.90;;;;;;4139213;28;20092;-70
2023/11/10 10:13:48;;;;;;;9.13;2.08;;;10.50;99.90;;;;;;4141157;28;20096;-70
2023/11/10 10:15:49;;;;;;;11.95;1.98;;;10.50;99.90;;;;;;4140167;28;20038;-70
2023/11/10 10:17:49;;;;;;;6.05;1.73;;;10.50;99.90;;;;;;4139660;28;20065;-71
2023/11/10 10:19:50;;;;;;;5.13;1.58;;;10.40;99.90;;;;;;4137208;28;20046;-70
2023/11/10 10:21:52;;;;;;;7.50;1.73;;;10.40;99.90;;;;;;4137228;28;20038;-71
2023/11/10 10:23:52;;;;;;;8.60;1.73;;;10.40;99.90;;;;;;4139705;28;20051;-70
2023/11/10 10:25:55;;;;;;;6.22;1.48;;;10.40;99.90;;;;;;4140785;28;20080;-71
2023/11/10 10:27:56;;;;;;;9.38;1.98;;;10.50;99.90;;;;;;4138533;28;20597;-69
2023/11/10 10:29:59;;;;;;;7.85;1.90;;;10.40;99.90;;;;;;4136117;28;20092;-69
2023/11/10 10:31:59;;;;;;;8.82;1.48;;;10.50;99.90;;;;;;4140326;28;20088;-69
2023/11/10 10:34:04;;;;;;;7.40;1.40;;;10.50;99.90;;;;;;4142614;28;20034;-69
2023/11/10 10:36:06;;;;;;;8.57;1.60;;;10.50;99.90;;;;;;4141305;28;20037;-69
2023/11/10 10:38:08;;;;;;;4.47;1.65;;;10.60;99.90;;;;;;4138661;28;20471;-67